Time;durP1;ratioP1;P1;durP2;ratioP2;P2;SDS_P1;SDS_P2;PMS_P1;PMS_P2;Temp;Humidity;BMP_temperature;BMP_pressure;BME280_temperature;BME280_humidity;BME280_pressure;Samples;Min_cycle;Max_cycle;Signal;HPM_P1;HPM_P2
2024/02/12 00:01:29;;;;;;;;;3.33;1.67;;;;;;;;5081705;28;45363;-72
2024/02/12 00:03:56;;;;;;;;;2.00;0.75;;;;;;;;5080031;28;45378;-72
2024/02/12 00:06:21;;;;;;;;;2.25;1.75;;;;;;;;5080218;27;45525;-72
2024/02/12 00:08:47;;;;;;;;;2.25;1.75;;;;;;;;5080803;28;45302;-72
2024/02/12 00:11:12;;;;;;;;;2.50;2.50;;;;;;;;5081091;28;45329;-72
2024/02/12 00:13:38;;;;;;;;;3.00;1.00;;;;;;;;5081390;28;45340;-72
2024/02/12 00:16:05;;;;;;;;;3.00;3.00;;;;;;;;5079983;28;46153;-72
2024/02/12 00:18:31;;;;;;;;;2.00;2.00;;;;;;;;5081050;28;45474;-72
2024/02/12 00:20:56;;;;;;;;;2.75;2.00;;;;;;;;5081060;28;45330;-72
2024/02/12 00:23:22;;;;;;;;;2.75;2.50;;;;;;;;5080687;28;45357;-72
2024/02/12 00:25:47;;;;;;;;;3.50;1.00;;;;;;;;5081123;27;45368;-72
2024/02/12 00:28:12;;;;;;;;;3.00;3.00;;;;;;;;5079238;28;46508;-71
2024/02/12 00:30:39;;;;;;;;;4.50;4.00;;;;;;;;5081100;28;45417;-71
2024/02/12 00:33:04;;;;;;;;;5.50;2.00;;;;;;;;5080884;28;45536;-71
2024/02/12 00:35:30;;;;;;;;;4.00;4.00;;;;;;;;5079688;28;45342;-71
2024/02/12 00:37:55;;;;;;;;;5.00;4.00;;;;;;;;5080283;28;45541;-72
2024/02/12 00:40:21;;;;;;;;;7.75;2.75;;;;;;;;5080962;28;45469;-72
2024/02/12 00:42:48;;;;;;;;;3.00;1.50;;;;;;;;5080762;28;45394;-72
2024/02/12 00:45:14;;;;;;;;;2.00;2.00;;;;;;;;5079476;27;45505;-72
2024/02/12 00:47:40;;;;;;;;;2.00;2.00;;;;;;;;5080551;28;45534;-72
2024/02/12 00:50:05;;;;;;;;;4.25;2.00;;;;;;;;5080708;28;45372;-72
2024/02/12 00:52:33;;;;;;;;;2.00;2.00;;;;;;;;5080647;28;45423;-72
2024/02/12 00:54:58;;;;;;;;;2.75;2.75;;;;;;;;5080590;28;45410;-72
2024/02/12 00:57:23;;;;;;;;;1.00;1.00;;;;;;;;5079152;28;48245;-72
2024/02/12 00:59:49;;;;;;;;;1.00;1.00;;;;;;;;5080581;28;45298;-72
2024/02/12 01:02:14;;;;;;;;;3.67;1.00;;;;;;;;5079272;28;45352;-72
2024/02/12 01:04:39;;;;;;;;;7.33;1.00;;;;;;;;5080512;28;45271;-72
2024/02/12 01:07:04;;;;;;;;;4.75;1.00;;;;;;;;5080189;28;45266;-72
2024/02/12 01:09:30;;;;;;;;;3.00;3.00;;;;;;;;5078693;27;45706;-72
2024/02/12 01:11:56;;;;;;;;;2.75;2.00;;;;;;;;5080009;28;45463;-72
2024/02/12 01:14:21;;;;;;;;;3.50;2.00;;;;;;;;5080326;27;45536;-72
2024/02/12 01:16:47;;;;;;;;;1.00;1.00;;;;;;;;5078881;28;47405;-72
2024/02/12 01:19:12;;;;;;;;;1.00;1.00;;;;;;;;5080187;28;45363;-72
2024/02/12 01:21:37;;;;;;;;;3.00;2.00;;;;;;;;5080311;28;45359;-72
2024/02/12 01:24:04;;;;;;;;;4.00;2.67;;;;;;;;5078568;28;45573;-72
2024/02/12 01:26:34;;;;;;;;;3.00;1.75;;;;;;;;5079908;28;45638;-72
2024/02/12 01:28:59;;;;;;;;;2.00;2.00;;;;;;;;5079986;28;45321;-72
2024/02/12 01:31:24;;;;;;;;;2.00;2.00;;;;;;;;5078894;28;45323;-72
2024/02/12 01:33:50;;;;;;;;;2.67;2.00;;;;;;;;5078811;28;45311;-72
2024/02/12 01:36:16;;;;;;;;;3.67;2.00;;;;;;;;5078333;28;47052;-72
2024/02/12 01:38:42;;;;;;;;;5.25;1.00;;;;;;;;5078442;28;45358;-72
2024/02/12 01:41:07;;;;;;;;;3.25;2.00;;;;;;;;5078491;28;45352;-72
2024/02/12 01:43:35;;;;;;;;;4.75;2.00;;;;;;;;5079978;28;45438;-72
2024/02/12 01:46:05;;;;;;;;;3.25;1.50;;;;;;;;5079707;28;46178;-72
2024/02/12 01:48:31;;;;;;;;;2.00;1.00;;;;;;;;5079848;28;45597;-72
2024/02/12 01:50:58;;;;;;;;;2.00;1.00;;;;;;;;5078557;27;45343;-72
2024/02/12 01:53:24;;;;;;;;;2.00;2.00;;;;;;;;5078132;28;45527;-72
2024/02/12 01:55:50;;;;;;;;;2.25;2.25;;;;;;;;5078025;28;47076;-72
2024/02/12 01:58:18;;;;;;;;;3.00;3.00;;;;;;;;5079582;28;45404;-72
2024/02/12 02:00:48;;;;;;;;;3.00;1.25;;;;;;;;5079788;28;45452;-72
2024/02/12 02:03:15;;;;;;;;;6.50;2.00;;;;;;;;5079742;28;45374;-72
2024/02/12 02:05:40;;;;;;;;;1.00;1.00;;;;;;;;5077930;28;47375;-72
2024/02/12 02:08:05;;;;;;;;;6.00;3.00;;;;;;;;5077898;28;45503;-72
2024/02/12 02:10:31;;;;;;;;;3.25;1.50;;;;;;;;5079137;28;45484;-72
2024/02/12 02:12:59;;;;;;;;;3.00;3.00;;;;;;;;5077965;28;45378;-72
2024/02/12 02:15:25;;;;;;;;;2.00;1.00;;;;;;;;5077721;27;47160;-72
2024/02/12 02:17:50;;;;;;;;;1.50;1.50;;;;;;;;5079505;28;45300;-72
2024/02/12 02:20:18;;;;;;;;;3.25;3.00;;;;;;;;5079360;28;45498;-72
2024/02/12 02:22:43;;;;;;;;;2.00;2.00;;;;;;;;5077806;28;45435;-72
2024/02/12 02:25:12;;;;;;;;;3.00;2.00;;;;;;;;5078090;28;47126;-72
2024/02/12 02:27:37;;;;;;;;;2.75;2.00;;;;;;;;5077480;28;45386;-72
2024/02/12 02:30:07;;;;;;;;;3.00;1.00;;;;;;;;5079477;28;45419;-72
2024/02/12 02:32:33;;;;;;;;;1.75;1.75;;;;;;;;5079058;28;45300;-72
2024/02/12 02:34:58;;;;;;;;;2.00;2.00;;;;;;;;5077800;28;48434;-72
2024/02/12 02:37:24;;;;;;;;;7.00;2.00;;;;;;;;5079123;28;45248;-72
2024/02/12 02:39:49;;;;;;;;;2.25;1.00;;;;;;;;5078962;28;45440;-72
2024/02/12 02:42:14;;;;;;;;;1.00;1.00;;;;;;;;5077649;28;46150;-72
2024/02/12 02:44:40;;;;;;;;;3.33;1.00;;;;;;;;5078479;28;46134;-72
2024/02/12 02:47:05;;;;;;;;;3.75;2.75;;;;;;;;5081196;28;45520;-72
2024/02/12 02:49:31;;;;;;;;;1.00;1.00;;;;;;;;5081355;28;45338;-72
2024/02/12 02:51:57;;;;;;;;;1.50;0.75;;;;;;;;5081212;28;45612;-72
2024/02/12 02:54:22;;;;;;;;;6.50;2.00;;;;;;;;5080811;28;47815;-72
2024/02/12 02:56:47;;;;;;;;;2.00;2.00;;;;;;;;5081101;28;45439;-72
2024/02/12 02:59:13;;;;;;;;;4.00;0.00;;;;;;;;5081060;28;45340;-72
2024/02/12 03:01:38;;;;;;;;;1.00;1.00;;;;;;;;5082364;28;45323;-72
2024/02/12 03:04:03;;;;;;;;;1.00;1.00;;;;;;;;5080917;28;47106;-72
2024/02/12 03:06:29;;;;;;;;;2.50;2.50;;;;;;;;5082288;28;45390;-72
2024/02/12 03:08:54;;;;;;;;;2.25;1.00;;;;;;;;5080819;28;45489;-72
2024/02/12 03:11:23;;;;;;;;;1.00;1.00;;;;;;;;5080774;28;45457;-72
2024/02/12 03:13:50;;;;;;;;;2.00;2.00;;;;;;;;5080788;28;47277;-72
2024/02/12 03:16:16;;;;;;;;;2.25;1.50;;;;;;;;5082080;28;45345;-72
2024/02/12 03:18:41;;;;;;;;;3.00;1.50;;;;;;;;5082212;28;45519;-72
2024/02/12 03:21:06;;;;;;;;;2.00;0.67;;;;;;;;5082224;28;45394;-72
2024/02/12 03:23:32;;;;;;;;;1.25;1.25;;;;;;;;5081675;28;45721;-72
2024/02/12 03:25:57;;;;;;;;;2.50;0.00;;;;;;;;5080709;28;45412;-72
2024/02/12 03:28:22;;;;;;;;;1.00;1.00;;;;;;;;5081898;28;45357;-72
2024/02/12 03:30:48;;;;;;;;;1.33;0.67;;;;;;;;5080517;28;45471;-72
2024/02/12 03:33:13;;;;;;;;;4.67;1.00;;;;;;;;5081579;28;45480;-72
2024/02/12 03:35:38;;;;;;;;;0.67;0.67;;;;;;;;5081803;28;45427;-72
2024/02/12 03:38:03;;;;;;;;;2.50;2.00;;;;;;;;5081729;28;45559;-72
2024/02/12 03:40:28;;;;;;;;;2.67;1.00;;;;;;;;5081966;28;45626;-72
2024/02/12 03:42:54;;;;;;;;;0.00;0.00;;;;;;;;5080265;28;45999;-72
2024/02/12 03:45:20;;;;;;;;;3.75;2.75;;;;;;;;5081933;28;45359;-72
2024/02/12 03:47:47;;;;;;;;;3.25;2.00;;;;;;;;5081723;28;45353;-72
2024/02/12 04:01:21;;;;;;;;;3.00;1.00;;;;;;;;5081558;28;45310;-72
2024/02/12 04:03:49;;;;;;;;;3.00;2.00;;;;;;;;5079896;28;47085;-72
2024/02/12 04:06:14;;;;;;;;;3.50;1.50;;;;;;;;5080144;28;45739;-72
2024/02/12 04:08:41;;;;;;;;;1.50;1.50;;;;;;;;5081161;28;45567;-72
2024/02/12 04:11:08;;;;;;;;;3.00;1.00;;;;;;;;5081209;28;45684;-72
2024/02/12 04:13:34;;;;;;;;;4.00;2.00;;;;;;;;5079689;28;46482;-72
2024/02/12 04:16:02;;;;;;;;;3.00;1.00;;;;;;;;5081351;28;45278;-72
2024/02/12 04:18:27;;;;;;;;;1.50;1.00;;;;;;;;5081283;28;45388;-72
2024/02/12 04:20:52;;;;;;;;;2.00;1.00;;;;;;;;5079912;28;45411;-72
2024/02/12 04:23:19;;;;;;;;;2.00;1.00;;;;;;;;5079305;28;47506;-72
2024/02/12 04:25:44;;;;;;;;;3.00;3.00;;;;;;;;5079819;28;45768;-72
2024/02/12 04:28:11;;;;;;;;;3.00;1.00;;;;;;;;5080852;28;45364;-72
2024/02/12 04:30:36;;;;;;;;;3.00;1.75;;;;;;;;5081075;28;45529;-72
2024/02/12 04:33:02;;;;;;;;;1.00;1.00;;;;;;;;5080761;28;46291;-72
2024/02/12 04:35:27;;;;;;;;;1.25;1.00;;;;;;;;5079849;27;45317;-72
2024/02/12 04:37:54;;;;;;;;;2.00;1.00;;;;;;;;5080740;28;45426;-72
2024/02/12 04:40:21;;;;;;;;;1.50;1.50;;;;;;;;5079590;27;45552;-72
2024/02/12 04:42:48;;;;;;;;;2.50;1.00;;;;;;;;5079188;28;48562;-72
2024/02/12 04:45:13;;;;;;;;;2.00;2.00;;;;;;;;5079508;28;45353;-71
2024/02/12 04:47:38;;;;;;;;;2.33;0.33;;;;;;;;5079738;28;45347;-72
2024/02/12 04:50:04;;;;;;;;;2.50;0.75;;;;;;;;5080745;28;45478;-72
2024/02/12 04:52:30;;;;;;;;;1.00;1.00;;;;;;;;5078997;28;47762;-72
2024/02/12 04:54:56;;;;;;;;;1.75;1.75;;;;;;;;5079304;28;45966;-72
2024/02/12 04:57:21;;;;;;;;;4.00;1.50;;;;;;;;5080543;28;45428;-71
2024/02/12 04:59:46;;;;;;;;;2.00;2.00;;;;;;;;5080599;28;45431;-71
2024/02/12 05:02:11;;;;;;;;;4.33;3.67;;;;;;;;5080418;28;45583;-71
2024/02/12 05:04:37;;;;;;;;;1.00;1.00;;;;;;;;5080342;28;45483;-72
2024/02/12 05:07:02;;;;;;;;;2.00;2.00;;;;;;;;5080581;28;45401;-71
2024/02/12 05:09:27;;;;;;;;;2.50;2.00;;;;;;;;5080120;28;45397;-71
2024/02/12 05:11:52;;;;;;;;;1.00;1.00;;;;;;;;5080058;28;45461;-72
2024/02/12 05:14:23;;;;;;;;;2.00;2.00;;;;;;;;5078928;28;45477;-72
2024/02/12 05:16:48;;;;;;;;;2.25;2.25;;;;;;;;5079084;28;45349;-71
2024/02/12 05:24:41;;;;;;;;;2.50;2.00;;;;;;;;5079799;28;45320;-71
2024/02/12 05:27:08;;;;;;;;;2.67;1.33;;;;;;;;5080092;28;45251;-71
2024/02/12 05:29:35;;;;;;;;;4.25;2.50;;;;;;;;5079867;27;46127;-71
2024/02/12 05:32:00;;;;;;;;;1.00;1.00;;;;;;;;5078711;28;48065;-71
2024/02/12 05:34:25;;;;;;;;;3.00;2.00;;;;;;;;5079851;27;45642;-71
2024/02/12 05:36:51;;;;;;;;;7.00;1.00;;;;;;;;5080148;28;45427;-71
2024/02/12 05:39:19;;;;;;;;;5.50;3.00;;;;;;;;5078231;28;45430;-71
2024/02/12 05:41:44;;;;;;;;;2.25;1.50;;;;;;;;5079788;28;45692;-72
2024/02/12 05:44:09;;;;;;;;;3.00;2.00;;;;;;;;5078511;28;46166;-72
2024/02/12 05:46:34;;;;;;;;;2.00;1.67;;;;;;;;5079998;28;45390;-71
2024/02/12 05:49:00;;;;;;;;;4.00;2.00;;;;;;;;5078354;28;45370;-72
2024/02/12 05:51:26;;;;;;;;;2.75;2.00;;;;;;;;5078408;28;48140;-71
2024/02/12 05:53:51;;;;;;;;;4.00;2.75;;;;;;;;5079329;28;45327;-71
2024/02/12 05:56:16;;;;;;;;;4.00;2.00;;;;;;;;5078405;28;45338;-72
2024/02/12 05:58:42;;;;;;;;;1.00;0.00;;;;;;;;5079643;28;45224;-71
2024/02/12 06:01:07;;;;;;;;;3.00;2.00;;;;;;;;5079541;28;45300;-71
2024/02/12 06:03:32;;;;;;;;;3.00;2.00;;;;;;;;5079592;28;45231;-71
2024/02/12 06:05:58;;;;;;;;;7.00;3.00;;;;;;;;5078353;28;45358;-72
2024/02/12 06:08:23;;;;;;;;;6.75;5.25;;;;;;;;5079114;28;45350;-71
2024/02/12 06:10:48;;;;;;;;;2.50;2.50;;;;;;;;5079203;28;45464;-71
2024/02/12 06:13:14;;;;;;;;;8.00;4.00;;;;;;;;5079219;28;45337;-71
2024/02/12 06:15:39;;;;;;;;;3.00;3.00;;;;;;;;5079328;28;45410;-71
2024/02/12 06:18:05;;;;;;;;;3.25;2.75;;;;;;;;5079193;28;45650;-71
2024/02/12 06:20:30;;;;;;;;;3.25;3.25;;;;;;;;5077422;28;47061;-71
2024/02/12 06:22:55;;;;;;;;;7.33;3.00;;;;;;;;5077714;28;45395;-72
2024/02/12 06:25:23;;;;;;;;;1.50;0.00;;;;;;;;5079421;28;45873;-72
2024/02/12 06:27:48;;;;;;;;;2.00;2.00;;;;;;;;5078731;28;45642;-72
2024/02/12 06:30:14;;;;;;;;;4.25;2.75;;;;;;;;5079269;28;45585;-72
2024/02/12 06:32:42;;;;;;;;;6.50;3.00;;;;;;;;5077587;28;45677;-72
2024/02/12 06:35:08;;;;;;;;;3.00;3.00;;;;;;;;5079370;28;45328;-72
2024/02/12 06:37:33;;;;;;;;;3.00;3.00;;;;;;;;5078816;28;45550;-72
2024/02/12 06:39:59;;;;;;;;;4.25;4.25;;;;;;;;5079110;28;45492;-72
2024/02/12 06:42:24;;;;;;;;;4.50;3.00;;;;;;;;5077517;28;45458;-72
2024/02/12 06:44:50;;;;;;;;;5.00;4.00;;;;;;;;5077865;28;45435;-72
2024/02/12 06:47:15;;;;;;;;;5.50;3.00;;;;;;;;5078941;28;45404;-72
2024/02/12 06:49:42;;;;;;;;;3.00;3.00;;;;;;;;5077636;28;47529;-72
2024/02/12 06:52:08;;;;;;;;;3.50;3.00;;;;;;;;5078811;28;45675;-72
2024/02/12 06:54:35;;;;;;;;;7.50;4.75;;;;;;;;5078954;28;45572;-72
2024/02/12 06:57:01;;;;;;;;;3.00;3.00;;;;;;;;5078789;28;45368;-72
2024/02/12 06:59:26;;;;;;;;;7.00;4.75;;;;;;;;5077156;27;47835;-72
2024/02/12 07:01:51;;;;;;;;;7.00;4.67;;;;;;;;5078802;28;45347;-72
2024/02/12 07:04:16;;;;;;;;;5.00;5.00;;;;;;;;5077453;28;45481;-72
2024/02/12 07:06:42;;;;;;;;;3.67;3.67;;;;;;;;5078643;28;45469;-72
2024/02/12 07:09:08;;;;;;;;;7.00;4.00;;;;;;;;5078333;28;45481;-72
2024/02/12 07:11:33;;;;;;;;;5.75;4.00;;;;;;;;5078418;28;45310;-72
2024/02/12 07:13:58;;;;;;;;;5.00;3.67;;;;;;;;5078906;28;45587;-72
2024/02/12 07:16:29;;;;;;;;;4.00;4.00;;;;;;;;5078529;28;45462;-72
2024/02/12 07:18:55;;;;;;;;;3.50;3.50;;;;;;;;5077138;28;47641;-72
2024/02/12 07:21:20;;;;;;;;;4.67;3.33;;;;;;;;5077086;28;45327;-72
2024/02/12 07:23:47;;;;;;;;;4.67;4.00;;;;;;;;5077255;28;45571;-72
2024/02/12 07:26:12;;;;;;;;;5.25;4.00;;;;;;;;5078203;28;45333;-72
2024/02/12 07:28:37;;;;;;;;;6.75;3.50;;;;;;;;5078101;28;45346;-72
2024/02/12 07:31:05;;;;;;;;;7.67;3.00;;;;;;;;5078623;28;45335;-72
2024/02/12 07:33:30;;;;;;;;;7.00;5.25;;;;;;;;5081793;28;45399;-72
2024/02/12 07:35:56;;;;;;;;;4.00;3.00;;;;;;;;5080542;28;45943;-72
2024/02/12 07:38:21;;;;;;;;;4.00;4.00;;;;;;;;5081699;28;45388;-72
2024/02/12 07:40:46;;;;;;;;;3.00;2.00;;;;;;;;5081635;28;45640;-72
2024/02/12 07:43:12;;;;;;;;;5.33;4.00;;;;;;;;5082046;28;45443;-72
2024/02/12 07:45:37;;;;;;;;;3.67;3.67;;;;;;;;5080280;28;45738;-72
2024/02/12 07:48:03;;;;;;;;;3.25;3.25;;;;;;;;5081783;28;45397;-72
2024/02/12 07:50:29;;;;;;;;;2.75;2.75;;;;;;;;5080267;28;45907;-72
2024/02/12 07:52:54;;;;;;;;;5.33;3.67;;;;;;;;5081766;28;45349;-72
2024/02/12 07:55:22;;;;;;;;;6.67;4.33;;;;;;;;5081472;28;45346;-72
2024/02/12 07:57:50;;;;;;;;;6.50;3.00;;;;;;;;5081439;28;46219;-72
2024/02/12 08:00:18;;;;;;;;;4.25;4.00;;;;;;;;5080143;28;45686;-72
2024/02/12 08:02:44;;;;;;;;;6.50;4.75;;;;;;;;5081786;28;45385;-67
2024/02/12 08:05:10;;;;;;;;;3.75;2.50;;;;;;;;5079933;28;45500;-68
2024/02/12 08:07:35;;;;;;;;;4.50;4.50;;;;;;;;5081252;28;45410;-72
2024/02/12 08:10:00;;;;;;;;;6.00;6.00;;;;;;;;5081162;28;45450;-72
2024/02/12 08:12:26;;;;;;;;;9.25;4.25;;;;;;;;5081284;28;45833;-72
2024/02/12 08:14:51;;;;;;;;;6.33;3.00;;;;;;;;5081288;28;45267;-72
2024/02/12 08:17:16;;;;;;;;;5.00;5.00;;;;;;;;5079717;28;47823;-73
2024/02/12 08:19:41;;;;;;;;;5.00;3.67;;;;;;;;5081113;28;45370;-73
2024/02/12 08:22:07;;;;;;;;;7.00;4.33;;;;;;;;5081302;28;45273;-70
2024/02/12 08:24:32;;;;;;;;;5.00;5.00;;;;;;;;5080625;28;45439;-70
2024/02/12 08:26:57;;;;;;;;;5.00;4.67;;;;;;;;5080995;28;46203;-70
2024/02/12 08:29:23;;;;;;;;;7.33;5.67;;;;;;;;5080763;28;45428;-70
2024/02/12 08:31:48;;;;;;;;;5.25;5.25;;;;;;;;5081329;28;45392;-70
2024/02/12 08:34:14;;;;;;;;;7.00;7.00;;;;;;;;5080885;27;45342;-70
2024/02/12 08:36:43;;;;;;;;;7.00;7.00;;;;;;;;5080941;28;45992;-70
2024/02/12 08:39:13;;;;;;;;;6.75;5.00;;;;;;;;5080561;28;45794;-70
2024/02/12 08:41:38;;;;;;;;;7.00;7.00;;;;;;;;5081101;28;45417;-70
2024/02/12 08:44:04;;;;;;;;;8.00;7.33;;;;;;;;5079161;28;45521;-70
2024/02/12 08:46:31;;;;;;;;;3.75;3.00;;;;;;;;5080615;28;46313;-70
2024/02/12 08:48:56;;;;;;;;;4.75;4.75;;;;;;;;5080726;28;45353;-70
2024/02/12 08:51:21;;;;;;;;;9.00;6.50;;;;;;;;5079541;28;45517;-71
2024/02/12 08:53:48;;;;;;;;;5.00;5.00;;;;;;;;5080340;28;45540;-71
2024/02/12 08:56:17;;;;;;;;;8.25;7.00;;;;;;;;5080477;28;45979;-71
2024/02/12 08:58:43;;;;;;;;;6.00;4.00;;;;;;;;5080528;28;45329;-71
2024/02/12 09:01:09;;;;;;;;;4.00;4.00;;;;;;;;5080889;28;45247;-71
2024/02/12 09:03:39;;;;;;;;;7.50;6.50;;;;;;;;5080256;28;45473;-67
2024/02/12 09:06:04;;;;;;;;;3.00;3.00;;;;;;;;5079384;27;48002;-71
2024/02/12 09:08:30;;;;;;;;;8.50;8.00;;;;;;;;5080150;28;45486;-71
2024/02/12 09:10:57;;;;;;;;;4.75;4.75;;;;;;;;5080293;28;45481;-71
2024/02/12 09:13:22;;;;;;;;;8.00;7.00;;;;;;;;5080145;28;45366;-71
2024/02/12 09:15:47;;;;;;;;;7.67;7.00;;;;;;;;5080260;28;45311;-71
2024/02/12 09:18:12;;;;;;;;;7.00;5.00;;;;;;;;5078812;28;45467;-71
2024/02/12 09:20:37;;;;;;;;;9.33;5.67;;;;;;;;5080585;28;45676;-71
2024/02/12 09:23:04;;;;;;;;;10.00;7.67;;;;;;;;5079802;28;45513;-69
2024/02/12 09:25:30;;;;;;;;;7.00;7.00;;;;;;;;5080280;28;46187;-73
2024/02/12 09:27:56;;;;;;;;;9.75;8.50;;;;;;;;5079718;28;45396;-73
2024/02/12 09:30:21;;;;;;;;;11.50;9.75;;;;;;;;5080387;28;45366;-74
2024/02/12 09:32:46;;;;;;;;;7.00;7.00;;;;;;;;5078495;28;45509;-73
2024/02/12 09:35:12;;;;;;;;;11.00;7.25;;;;;;;;5080126;28;45598;-73
2024/02/12 09:37:39;;;;;;;;;9.75;9.00;;;;;;;;5079533;28;45448;-73
2024/02/12 09:40:07;;;;;;;;;9.25;8.50;;;;;;;;5080328;28;45335;-73
2024/02/12 09:42:32;;;;;;;;;10.75;9.50;;;;;;;;5079782;28;45507;-72
2024/02/12 09:44:59;;;;;;;;;13.75;12.25;;;;;;;;5079864;28;46680;-73
2024/02/12 09:47:26;;;;;;;;;11.00;11.00;;;;;;;;5079702;28;45457;-72
2024/02/12 09:49:53;;;;;;;;;10.75;8.00;;;;;;;;5080175;28;45496;-67
2024/02/12 09:52:18;;;;;;;;;10.25;10.25;;;;;;;;5079395;28;45522;-72
2024/02/12 09:54:44;;;;;;;;;14.50;12.25;;;;;;;;5078767;28;45353;-73
2024/02/12 09:57:11;;;;;;;;;10.00;9.00;;;;;;;;5079472;28;45424;-74
2024/02/12 09:59:36;;;;;;;;;16.00;9.75;;;;;;;;5079980;28;45350;-73
2024/02/12 10:02:02;;;;;;;;;12.50;10.00;;;;;;;;5079491;28;45534;-73
2024/02/12 10:04:29;;;;;;;;;13.75;11.00;;;;;;;;5079574;28;45997;-73
2024/02/12 10:06:55;;;;;;;;;9.75;9.75;;;;;;;;5079384;28;45248;-74
2024/02/12 10:09:20;;;;;;;;;11.75;10.00;;;;;;;;5078060;28;45415;-73
2024/02/12 10:11:45;;;;;;;;;10.67;10.67;;;;;;;;5079114;28;45422;-73
2024/02/12 10:14:13;;;;;;;;;9.75;9.50;;;;;;;;5079289;27;46549;-66
2024/02/12 10:16:38;;;;;;;;;11.00;9.25;;;;;;;;5079125;28;45365;-66
2024/02/12 10:19:03;;;;;;;;;12.25;8.50;;;;;;;;5079686;28;45540;-68
2024/02/12 10:21:29;;;;;;;;;15.67;11.00;;;;;;;;5079421;28;45334;-72
2024/02/12 10:23:59;;;;;;;;;10.00;9.00;;;;;;;;5079228;28;45434;-74
2024/02/12 10:26:24;;;;;;;;;10.00;9.25;;;;;;;;5079011;28;45504;-66
2024/02/12 10:28:54;;;;;;;;;9.00;9.00;;;;;;;;5079102;28;45405;-73
2024/02/12 10:31:21;;;;;;;;;13.00;8.75;;;;;;;;5079249;28;45447;-74
2024/02/12 10:33:46;;;;;;;;;11.25;10.00;;;;;;;;5078973;28;45283;-74
2024/02/12 10:36:12;;;;;;;;;8.00;8.00;;;;;;;;5079158;28;45289;-74
2024/02/12 10:38:41;;;;;;;;;15.25;11.50;;;;;;;;5077713;28;45338;-74
2024/02/12 10:41:13;;;;;;;;;11.50;10.50;;;;;;;;5078877;28;45515;-74
2024/02/12 10:43:41;;;;;;;;;10.50;9.00;;;;;;;;5077813;28;47390;-74
2024/02/12 10:46:07;;;;;;;;;10.50;9.00;;;;;;;;5077504;28;45581;-74
2024/02/12 10:48:34;;;;;;;;;10.75;10.00;;;;;;;;5077754;28;45350;-74
2024/02/12 10:51:00;;;;;;;;;11.50;9.75;;;;;;;;5078834;28;45319;-74
2024/02/12 10:53:28;;;;;;;;;8.75;6.25;;;;;;;;5078637;28;46216;-74
2024/02/12 10:55:54;;;;;;;;;10.00;8.75;;;;;;;;5078836;28;45335;-74
2024/02/12 10:58:19;;;;;;;;;10.50;9.25;;;;;;;;5078965;28;45338;-74
2024/02/12 11:00:56;;;;;;;;;10.25;9.75;;;;;;;;5078796;28;45497;-74
2024/02/12 11:03:32;;;;;;;;;11.75;11.00;;;;;;;;5078669;28;45601;-74
2024/02/12 11:05:58;;;;;;;;;10.00;7.50;;;;;;;;5080078;28;45690;-74
2024/02/12 11:08:24;;;;;;;;;10.00;10.00;;;;;;;;5082152;28;45420;-74
2024/02/12 11:10:50;;;;;;;;;12.33;8.67;;;;;;;;5081999;28;45575;-74
2024/02/12 11:13:16;;;;;;;;;9.00;8.50;;;;;;;;5081951;28;45397;-74
2024/02/12 11:15:50;;;;;;;;;12.00;10.50;;;;;;;;5082299;28;45361;-74
2024/02/12 11:18:15;;;;;;;;;13.75;10.25;;;;;;;;5082209;28;45419;-74
2024/02/12 11:20:48;;;;;;;;;10.67;10.00;;;;;;;;5080843;28;45318;-74
2024/02/12 11:23:20;;;;;;;;;10.75;10.00;;;;;;;;5081472;28;46208;-74
2024/02/12 11:25:46;;;;;;;;;11.50;10.75;;;;;;;;5081975;28;45334;-74
2024/02/12 11:28:15;;;;;;;;;9.00;9.00;;;;;;;;5081905;28;45554;-74
2024/02/12 11:30:41;;;;;;;;;10.25;9.00;;;;;;;;5080550;28;45856;-74
2024/02/12 11:33:08;;;;;;;;;14.25;11.75;;;;;;;;5081606;28;45270;-74
2024/02/12 11:35:34;;;;;;;;;10.75;10.00;;;;;;;;5081780;28;45611;-74
2024/02/12 11:38:00;;;;;;;;;11.00;10.00;;;;;;;;5081740;28;45526;-74
2024/02/12 11:40:25;;;;;;;;;10.00;10.00;;;;;;;;5081938;28;45481;-75
2024/02/12 11:42:50;;;;;;;;;8.00;7.33;;;;;;;;5081497;28;45611;-67
2024/02/12 11:45:20;;;;;;;;;6.25;5.50;;;;;;;;5081686;28;45380;-73
2024/02/12 11:47:48;;;;;;;;;4.00;3.75;;;;;;;;5082075;28;45354;-73
2024/02/12 11:50:26;;;;;;;;;6.25;5.50;;;;;;;;5080424;28;45571;-74
2024/02/12 11:52:52;;;;;;;;;5.25;4.25;;;;;;;;5081643;28;46154;-73
2024/02/12 11:55:18;;;;;;;;;5.00;4.00;;;;;;;;5081805;28;45315;-73
2024/02/12 11:57:44;;;;;;;;;6.00;4.75;;;;;;;;5089203;27;45422;-73
2024/02/12 12:00:16;;;;;;;;;4.75;4.75;;;;;;;;5102199;27;45500;-73
2024/02/12 12:02:42;;;;;;;;;4.75;4.75;;;;;;;;5102152;27;45481;-73
2024/02/12 12:05:08;;;;;;;;;7.00;6.00;;;;;;;;5072938;27;45668;-74
2024/02/12 12:07:36;;;;;;;;;6.00;6.00;;;;;;;;5079991;28;45464;-74
2024/02/12 12:10:10;;;;;;;;;5.00;4.75;;;;;;;;5081271;27;45469;-73
2024/02/12 12:12:35;;;;;;;;;4.25;4.00;;;;;;;;5081170;28;45378;-74
2024/02/12 12:15:05;;;;;;;;;3.25;3.00;;;;;;;;5081312;28;45318;-74
2024/02/12 12:17:30;;;;;;;;;5.00;3.25;;;;;;;;5080639;28;45437;-74
2024/02/12 12:19:57;;;;;;;;;4.00;4.00;;;;;;;;5081424;28;45338;-73
2024/02/12 12:22:22;;;;;;;;;5.75;5.00;;;;;;;;5081050;27;45381;-73
2024/02/12 12:24:47;;;;;;;;;9.67;7.67;;;;;;;;5081208;28;45548;-73
2024/02/12 12:27:23;;;;;;;;;6.67;6.00;;;;;;;;5081101;28;45563;-73
2024/02/12 12:29:48;;;;;;;;;6.00;6.00;;;;;;;;5080961;27;45613;-73
2024/02/12 12:32:14;;;;;;;;;5.75;5.75;;;;;;;;5081072;28;45676;-73
2024/02/12 12:34:39;;;;;;;;;6.00;5.00;;;;;;;;5080927;27;45528;-73
2024/02/12 12:37:06;;;;;;;;;2.75;2.75;;;;;;;;5081082;28;45516;-73
2024/02/12 12:39:32;;;;;;;;;2.75;2.75;;;;;;;;5080998;28;45301;-73
2024/02/12 12:41:57;;;;;;;;;3.25;3.25;;;;;;;;5080840;28;45464;-73
2024/02/12 12:44:22;;;;;;;;;3.25;2.75;;;;;;;;5080948;28;45313;-73
2024/02/12 12:46:47;;;;;;;;;3.67;2.33;;;;;;;;5079857;28;45744;-73
2024/02/12 12:49:13;;;;;;;;;2.33;2.33;;;;;;;;5080833;28;45359;-73
2024/02/12 12:51:38;;;;;;;;;2.50;2.50;;;;;;;;5080604;28;45359;-73
2024/02/12 12:54:04;;;;;;;;;3.00;2.67;;;;;;;;5080423;28;45373;-73
2024/02/12 12:56:29;;;;;;;;;2.50;2.00;;;;;;;;5080900;28;45374;-73
2024/02/12 12:58:56;;;;;;;;;2.50;2.00;;;;;;;;5080641;28;45539;-73
2024/02/12 13:01:21;;;;;;;;;2.00;2.00;;;;;;;;5080615;28;45996;-73
2024/02/12 13:03:49;;;;;;;;;1.25;1.25;;;;;;;;5080567;28;45608;-73
2024/02/12 13:06:14;;;;;;;;;2.00;2.00;;;;;;;;5080844;28;45448;-73
2024/02/12 13:08:42;;;;;;;;;1.33;1.00;;;;;;;;5080252;28;45523;-73
2024/02/12 13:11:07;;;;;;;;;3.25;1.75;;;;;;;;5078803;28;47942;-73
2024/02/12 13:13:35;;;;;;;;;2.00;0.75;;;;;;;;5080311;28;45470;-73
2024/02/12 13:16:03;;;;;;;;;1.00;1.00;;;;;;;;5080511;28;45411;-73
2024/02/12 13:18:29;;;;;;;;;2.75;2.75;;;;;;;;5080270;28;45437;-73
2024/02/12 13:20:55;;;;;;;;;2.00;2.00;;;;;;;;5080410;28;45683;-73
2024/02/12 13:23:20;;;;;;;;;1.00;1.00;;;;;;;;5079915;28;45371;-73
2024/02/12 13:25:46;;;;;;;;;2.00;1.00;;;;;;;;5080528;28;45341;-73
2024/02/12 13:28:13;;;;;;;;;2.50;2.00;;;;;;;;5079871;28;45441;-73
2024/02/12 13:30:38;;;;;;;;;3.00;3.00;;;;;;;;5079024;28;46491;-73
2024/02/12 13:33:12;;;;;;;;;2.67;2.67;;;;;;;;5079895;28;45254;-73
2024/02/12 13:35:39;;;;;;;;;6.00;2.00;;;;;;;;5080211;28;45322;-73
2024/02/12 13:38:04;;;;;;;;;2.00;1.00;;;;;;;;5079766;28;45633;-73
2024/02/12 13:40:30;;;;;;;;;2.00;0.67;;;;;;;;5080002;28;45488;-73
2024/02/12 13:42:55;;;;;;;;;2.00;1.00;;;;;;;;5079158;27;45426;-69
2024/02/12 13:45:20;;;;;;;;;1.75;1.75;;;;;;;;5081582;27;45427;-76
2024/02/12 13:47:47;;;;;;;;;1.00;1.00;;;;;;;;5081310;27;45424;-76
2024/02/12 13:50:13;;;;;;;;;2.25;2.00;;;;;;;;5064972;28;48220;-75
2024/02/12 13:52:39;;;;;;;;;2.00;2.00;;;;;;;;5083190;27;45420;-75
2024/02/12 13:55:10;;;;;;;;;2.00;2.00;;;;;;;;5081669;27;45308;-75
2024/02/12 13:57:36;;;;;;;;;2.25;1.25;;;;;;;;5078889;28;45380;-75
2024/02/12 14:00:01;;;;;;;;;0.50;0.50;;;;;;;;5069809;27;46269;-75
2024/02/12 14:02:26;;;;;;;;;3.00;1.67;;;;;;;;5076782;27;45367;-75
2024/02/12 14:04:53;;;;;;;;;1.00;1.00;;;;;;;;5077036;27;45396;-75
2024/02/12 14:07:18;;;;;;;;;2.00;1.00;;;;;;;;5067601;27;45412;-75
2024/02/12 14:09:43;;;;;;;;;0.33;0.33;;;;;;;;5072445;27;47921;-75
2024/02/12 14:12:08;;;;;;;;;1.00;1.00;;;;;;;;5072164;27;45485;-76
2024/02/12 14:14:34;;;;;;;;;0.67;0.67;;;;;;;;5077014;27;45631;-75
2024/02/12 14:16:59;;;;;;;;;0.33;0.00;;;;;;;;5087324;27;45272;-75
2024/02/12 14:19:24;;;;;;;;;1.67;1.00;;;;;;;;5085026;27;45499;-75
2024/02/12 14:21:49;;;;;;;;;2.00;1.00;;;;;;;;5077105;27;45422;-75
2024/02/12 14:24:15;;;;;;;;;1.00;1.00;;;;;;;;5075345;27;45408;-75
2024/02/12 14:26:45;;;;;;;;;1.75;0.00;;;;;;;;5078789;28;45600;-75
2024/02/12 14:29:11;;;;;;;;;1.00;1.00;;;;;;;;5080032;27;46103;-75
2024/02/12 14:31:37;;;;;;;;;0.00;0.00;;;;;;;;5084799;27;45465;-67
2024/02/12 14:34:02;;;;;;;;;1.00;1.00;;;;;;;;5075326;27;46084;-74
2024/02/12 14:36:31;;;;;;;;;0.00;0.00;;;;;;;;5078641;28;45390;-74
2024/02/12 14:38:56;;;;;;;;;0.75;0.75;;;;;;;;5083566;27;45390;-70
2024/02/12 14:41:23;;;;;;;;;1.00;1.00;;;;;;;;5080435;27;45346;-73
2024/02/12 14:43:48;;;;;;;;;1.00;1.00;;;;;;;;5081164;27;45398;-72
2024/02/12 14:46:14;;;;;;;;;1.00;0.00;;;;;;;;5082075;27;45568;-72
2024/02/12 14:48:39;;;;;;;;;1.00;1.00;;;;;;;;5084632;27;45351;-72
2024/02/12 14:51:04;;;;;;;;;0.00;0.00;;;;;;;;5092481;27;45353;-73